This is the latest recevied weather packets stored in our database for station/object HS9UAC-10. If no packets are shown the sender has not sent any weather packets the latest 10 day(s).
| Time | Temp. | Humidity | Pressure | Rain* | Wind** | Luminosity | Snow |
|---|---|---|---|---|---|---|---|
| 1778224539 | 39.44° C | 53% | 1005 hPa | - | - | 0 W/m² | - |
| 1778223614 | 37.22° C | 59% | 1006 hPa | - | - | 0 W/m² | - |
| 1778222690 | 37.78° C | 57% | 1006 hPa | - | - | 0 W/m² | - |
| 1778221765 | 38.89° C | 55% | 1006 hPa | - | - | 0 W/m² | - |
| 1778220841 | 38.33° C | 56% | 1006 hPa | - | - | 0 W/m² | - |
| 1778219916 | 37.78° C | 57% | 1006 hPa | - | - | 0 W/m² | - |
| 1778218991 | 37.22° C | 60% | 1007 hPa | - | - | 0 W/m² | - |
| 1778218067 | 37.78° C | 60% | 1007 hPa | - | - | 0 W/m² | - |
| 1778196800 | 30.56° C | 97% | 1007 hPa | - | - | 0 W/m² | - |
| 1778187883 | 30.56° C | 95% | 1006 hPa | - | - | 0 W/m² | - |
| 1778186958 | 31.11° C | 93% | 1005 hPa | - | - | 0 W/m² | - |
| 1778186033 | 31.11° C | 93% | 1006 hPa | - | - | 0 W/m² | - |
| 1778185109 | 31.67° C | 91% | 1006 hPa | - | - | 0 W/m² | - |
| 1778183260 | 31.11° C | 93% | 1006 hPa | - | - | 0 W/m² | - |
| 1778182335 | 31.67° C | 92% | 1006 hPa | - | - | 0 W/m² | - |
| 1778179562 | 31.67° C | 92% | 1006 hPa | - | - | 0 W/m² | - |
| 1778178637 | 32.22° C | 89% | 1006 hPa | - | - | 0 W/m² | - |
| 1778177712 | 32.22° C | 88% | 1007 hPa | - | - | 0 W/m² | - |
| 1778174938 | 32.22° C | 88% | 1007 hPa | - | - | 0 W/m² | - |
| 1778174014 | 32.22° C | 87% | 1007 hPa | - | - | 0 W/m² | - |
| 1778167542 | 33.33° C | 85% | 1008 hPa | - | - | 0 W/m² | - |
| 1778166617 | 32.78° C | 85% | 1008 hPa | - | - | 0 W/m² | - |
| 1778165693 | 33.33° C | 82% | 1008 hPa | - | - | 0 W/m² | - |
| 1778164768 | 32.78° C | 81% | 1008 hPa | - | - | 0 W/m² | - |
| 1778163844 | 32.78° C | 81% | 1008 hPa | - | - | 0 W/m² | - |
* Rain since midnight (hover to see other rain measurements)
** Current wind speed in m/s (hover to see current wind gust speed)